sensor_id;sensor_type;location;lat;lon;timestamp;temperature;humidity
10123;DHT22;5101;49.038;8.710;2022-08-25T00:01:16;21.70;83.70
10123;DHT22;5101;49.038;8.710;2022-08-25T00:03:43;21.70;84.90
10123;DHT22;5101;49.038;8.710;2022-08-25T00:06:09;21.70;84.90
10123;DHT22;5101;49.038;8.710;2022-08-25T00:08:35;21.70;85.40
10123;DHT22;5101;49.038;8.710;2022-08-25T00:11:10;21.70;85.80
10123;DHT22;5101;49.038;8.710;2022-08-25T00:13:38;21.70;86.80
10123;DHT22;5101;49.038;8.710;2022-08-25T00:16:04;21.60;86.70
10123;DHT22;5101;49.038;8.710;2022-08-25T00:18:29;21.60;86.80
10123;DHT22;5101;49.038;8.710;2022-08-25T00:20:55;21.60;86.60
10123;DHT22;5101;49.038;8.710;2022-08-25T00:23:21;21.60;87.00
10123;DHT22;5101;49.038;8.710;2022-08-25T00:25:47;21.60;87.00
10123;DHT22;5101;49.038;8.710;2022-08-25T00:28:13;21.50;86.70
10123;DHT22;5101;49.038;8.710;2022-08-25T00:30:39;21.50;87.00
10123;DHT22;5101;49.038;8.710;2022-08-25T00:33:04;21.50;87.20
10123;DHT22;5101;49.038;8.710;2022-08-25T00:35:31;21.40;87.20
10123;DHT22;5101;49.038;8.710;2022-08-25T00:37:57;21.40;87.50
10123;DHT22;5101;49.038;8.710;2022-08-25T00:40:24;21.40;87.80
10123;DHT22;5101;49.038;8.710;2022-08-25T00:42:50;21.30;87.80
10123;DHT22;5101;49.038;8.710;2022-08-25T00:45:15;21.30;88.20
10123;DHT22;5101;49.038;8.710;2022-08-25T00:47:43;21.20;88.30
10123;DHT22;5101;49.038;8.710;2022-08-25T00:50:09;21.20;88.40
10123;DHT22;5101;49.038;8.710;2022-08-25T00:52:39;21.10;88.60
10123;DHT22;5101;49.038;8.710;2022-08-25T00:55:14;21.10;89.10
10123;DHT22;5101;49.038;8.710;2022-08-25T00:57:45;21.10;89.50
10123;DHT22;5101;49.038;8.710;2022-08-25T01:00:20;21.00;89.60
10123;DHT22;5101;49.038;8.710;2022-08-25T01:02:46;21.00;89.60
10123;DHT22;5101;49.038;8.710;2022-08-25T01:05:12;20.90;89.80
10123;DHT22;5101;49.038;8.710;2022-08-25T01:07:38;20.90;90.10
10123;DHT22;5101;49.038;8.710;2022-08-25T01:10:07;20.90;90.30
10123;DHT22;5101;49.038;8.710;2022-08-25T01:12:34;20.90;90.50
10123;DHT22;5101;49.038;8.710;2022-08-25T01:15:05;20.80;90.60
10123;DHT22;5101;49.038;8.710;2022-08-25T01:17:49;20.80;90.80
10123;DHT22;5101;49.038;8.710;2022-08-25T01:20:15;20.80;90.80
10123;DHT22;5101;49.038;8.710;2022-08-25T01:22:43;20.70;91.00
10123;DHT22;5101;49.038;8.710;2022-08-25T01:25:34;20.70;91.20
10123;DHT22;5101;49.038;8.710;2022-08-25T01:28:02;20.60;91.70
10123;DHT22;5101;49.038;8.710;2022-08-25T01:30:28;20.60;91.50
10123;DHT22;5101;49.038;8.710;2022-08-25T01:32:53;20.60;91.50
10123;DHT22;5101;49.038;8.710;2022-08-25T01:35:19;20.50;91.50
10123;DHT22;5101;49.038;8.710;2022-08-25T01:37:45;20.50;91.60
10123;DHT22;5101;49.038;8.710;2022-08-25T01:40:11;20.50;91.80
10123;DHT22;5101;49.038;8.710;2022-08-25T01:42:52;20.50;92.20
10123;DHT22;5101;49.038;8.710;2022-08-25T01:45:19;20.40;92.30
10123;DHT22;5101;49.038;8.710;2022-08-25T01:47:44;20.40;92.20
10123;DHT22;5101;49.038;8.710;2022-08-25T01:50:10;20.30;92.20
10123;DHT22;5101;49.038;8.710;2022-08-25T01:52:53;20.30;92.30
10123;DHT22;5101;49.038;8.710;2022-08-25T01:55:19;20.30;92.70
10123;DHT22;5101;49.038;8.710;2022-08-25T01:57:44;20.20;92.60
10123;DHT22;5101;49.038;8.710;2022-08-25T02:00:12;20.20;92.80
10123;DHT22;5101;49.038;8.710;2022-08-25T02:02:39;20.20;92.90
10123;DHT22;5101;49.038;8.710;2022-08-25T02:05:07;20.20;92.90
10123;DHT22;5101;49.038;8.710;2022-08-25T02:07:34;20.10;93.00
10123;DHT22;5101;49.038;8.710;2022-08-25T02:10:00;20.10;93.30
10123;DHT22;5101;49.038;8.710;2022-08-25T02:12:26;20.00;93.30
10123;DHT22;5101;49.038;8.710;2022-08-25T02:14:52;20.00;93.40
10123;DHT22;5101;49.038;8.710;2022-08-25T02:17:17;20.00;93.50
10123;DHT22;5101;49.038;8.710;2022-08-25T02:19:43;19.90;93.60
10123;DHT22;5101;49.038;8.710;2022-08-25T02:22:08;19.90;93.60
10123;DHT22;5101;49.038;8.710;2022-08-25T02:24:34;19.90;93.80
10123;DHT22;5101;49.038;8.710;2022-08-25T02:26:59;19.80;94.00
10123;DHT22;5101;49.038;8.710;2022-08-25T02:29:25;19.90;94.10
10123;DHT22;5101;49.038;8.710;2022-08-25T02:31:51;19.80;94.30
10123;DHT22;5101;49.038;8.710;2022-08-25T02:34:17;19.80;94.40
10123;DHT22;5101;49.038;8.710;2022-08-25T02:36:42;19.80;94.50
10123;DHT22;5101;49.038;8.710;2022-08-25T02:39:09;19.70;94.50
10123;DHT22;5101;49.038;8.710;2022-08-25T02:41:35;19.70;94.40
10123;DHT22;5101;49.038;8.710;2022-08-25T02:44:02;19.70;94.40
10123;DHT22;5101;49.038;8.710;2022-08-25T02:46:28;19.60;94.50
10123;DHT22;5101;49.038;8.710;2022-08-25T02:48:55;19.60;94.60
10123;DHT22;5101;49.038;8.710;2022-08-25T02:51:22;19.60;94.80
10123;DHT22;5101;49.038;8.710;2022-08-25T02:53:49;19.60;95.00
10123;DHT22;5101;49.038;8.710;2022-08-25T02:56:15;19.60;95.20
10123;DHT22;5101;49.038;8.710;2022-08-25T02:58:42;19.50;95.20
10123;DHT22;5101;49.038;8.710;2022-08-25T03:01:09;19.50;95.30
10123;DHT22;5101;49.038;8.710;2022-08-25T03:03:39;19.50;95.50
10123;DHT22;5101;49.038;8.710;2022-08-25T03:06:07;19.40;95.60
10123;DHT22;5101;49.038;8.710;2022-08-25T03:08:34;19.40;95.60
10123;DHT22;5101;49.038;8.710;2022-08-25T03:11:01;19.40;95.70
10123;DHT22;5101;49.038;8.710;2022-08-25T03:13:26;19.30;95.80
10123;DHT22;5101;49.038;8.710;2022-08-25T03:15:52;19.30;95.90
10123;DHT22;5101;49.038;8.710;2022-08-25T03:18:18;19.30;96.00
10123;DHT22;5101;49.038;8.710;2022-08-25T03:20:44;19.30;96.20
10123;DHT22;5101;49.038;8.710;2022-08-25T03:23:10;19.30;96.30
10123;DHT22;5101;49.038;8.710;2022-08-25T03:25:39;19.20;96.30
10123;DHT22;5101;49.038;8.710;2022-08-25T03:28:37;19.20;96.40
10123;DHT22;5101;49.038;8.710;2022-08-25T03:31:03;19.20;96.30
10123;DHT22;5101;49.038;8.710;2022-08-25T03:33:29;19.10;96.40
10123;DHT22;5101;49.038;8.710;2022-08-25T03:35:55;19.10;96.50
10123;DHT22;5101;49.038;8.710;2022-08-25T03:38:22;19.10;96.50
10123;DHT22;5101;49.038;8.710;2022-08-25T03:40:48;19.10;96.50
10123;DHT22;5101;49.038;8.710;2022-08-25T03:43:14;19.10;96.50
10123;DHT22;5101;49.038;8.710;2022-08-25T03:45:41;19.10;96.80
10123;DHT22;5101;49.038;8.710;2022-08-25T03:48:07;19.00;97.00
10123;DHT22;5101;49.038;8.710;2022-08-25T03:50:33;19.00;97.10
10123;DHT22;5101;49.038;8.710;2022-08-25T03:52:58;19.00;97.30
10123;DHT22;5101;49.038;8.710;2022-08-25T03:55:24;19.00;97.40
10123;DHT22;5101;49.038;8.710;2022-08-25T03:57:51;19.00;97.50
10123;DHT22;5101;49.038;8.710;2022-08-25T04:00:18;19.00;97.60
10123;DHT22;5101;49.038;8.710;2022-08-25T04:02:43;18.90;97.70
10123;DHT22;5101;49.038;8.710;2022-08-25T04:05:10;18.90;97.80
10123;DHT22;5101;49.038;8.710;2022-08-25T04:07:36;18.90;97.80
10123;DHT22;5101;49.038;8.710;2022-08-25T04:10:04;18.90;97.90
10123;DHT22;5101;49.038;8.710;2022-08-25T04:12:29;18.90;97.90
10123;DHT22;5101;49.038;8.710;2022-08-25T04:14:55;18.90;97.90
10123;DHT22;5101;49.038;8.710;2022-08-25T04:17:20;18.90;97.90
10123;DHT22;5101;49.038;8.710;2022-08-25T04:19:47;18.80;97.90
10123;DHT22;5101;49.038;8.710;2022-08-25T04:22:12;18.90;97.90
10123;DHT22;5101;49.038;8.710;2022-08-25T04:24:37;18.80;97.90
10123;DHT22;5101;49.038;8.710;2022-08-25T04:27:03;18.80;98.00
10123;DHT22;5101;49.038;8.710;2022-08-25T04:29:29;18.80;98.20
10123;DHT22;5101;49.038;8.710;2022-08-25T04:31:54;18.80;98.30
10123;DHT22;5101;49.038;8.710;2022-08-25T04:34:21;18.80;98.50
10123;DHT22;5101;49.038;8.710;2022-08-25T04:36:48;18.80;98.60
10123;DHT22;5101;49.038;8.710;2022-08-25T04:39:18;18.80;98.80
10123;DHT22;5101;49.038;8.710;2022-08-25T04:41:48;18.80;98.80
10123;DHT22;5101;49.038;8.710;2022-08-25T04:44:15;18.70;98.80
10123;DHT22;5101;49.038;8.710;2022-08-25T04:46:41;18.80;98.80
10123;DHT22;5101;49.038;8.710;2022-08-25T04:49:07;18.70;98.90
10123;DHT22;5101;49.038;8.710;2022-08-25T04:51:36;18.70;99.00
10123;DHT22;5101;49.038;8.710;2022-08-25T04:54:05;18.70;99.20
10123;DHT22;5101;49.038;8.710;2022-08-25T04:56:31;18.70;99.10
10123;DHT22;5101;49.038;8.710;2022-08-25T04:59:02;18.60;99.10
10123;DHT22;5101;49.038;8.710;2022-08-25T05:01:28;18.60;99.10
10123;DHT22;5101;49.038;8.710;2022-08-25T05:03:56;18.60;99.00
10123;DHT22;5101;49.038;8.710;2022-08-25T05:06:23;18.60;99.10
10123;DHT22;5101;49.038;8.710;2022-08-25T05:08:49;18.60;99.00
10123;DHT22;5101;49.038;8.710;2022-08-25T05:11:16;18.60;99.00
10123;DHT22;5101;49.038;8.710;2022-08-25T05:13:44;18.60;99.10
10123;DHT22;5101;49.038;8.710;2022-08-25T05:16:09;18.60;99.30
10123;DHT22;5101;49.038;8.710;2022-08-25T05:18:35;18.60;99.50
10123;DHT22;5101;49.038;8.710;2022-08-25T05:21:09;18.60;99.80
10123;DHT22;5101;49.038;8.710;2022-08-25T05:23:36;18.60;99.90
10123;DHT22;5101;49.038;8.710;2022-08-25T05:26:07;18.60;99.90
10123;DHT22;5101;49.038;8.710;2022-08-25T05:28:33;18.60;99.90
10123;DHT22;5101;49.038;8.710;2022-08-25T05:31:00;18.70;99.90
10123;DHT22;5101;49.038;8.710;2022-08-25T05:33:27;18.60;99.90
10123;DHT22;5101;49.038;8.710;2022-08-25T05:35:53;18.70;99.90
10123;DHT22;5101;49.038;8.710;2022-08-25T05:38:18;18.70;99.90
10123;DHT22;5101;49.038;8.710;2022-08-25T05:40:44;18.70;99.90
10123;DHT22;5101;49.038;8.710;2022-08-25T05:43:10;18.70;99.90
10123;DHT22;5101;49.038;8.710;2022-08-25T05:45:36;18.70;99.90
10123;DHT22;5101;49.038;8.710;2022-08-25T05:48:02;18.80;99.90
10123;DHT22;5101;49.038;8.710;2022-08-25T05:50:27;18.80;99.90
10123;DHT22;5101;49.038;8.710;2022-08-25T05:52:53;18.80;99.90
10123;DHT22;5101;49.038;8.710;2022-08-25T05:55:19;18.80;99.90
10123;DHT22;5101;49.038;8.710;2022-08-25T05:57:45;18.90;99.90
10123;DHT22;5101;49.038;8.710;2022-08-25T06:00:11;18.90;99.90
10123;DHT22;5101;49.038;8.710;2022-08-25T06:02:37;19.00;99.90
10123;DHT22;5101;49.038;8.710;2022-08-25T06:05:15;19.10;99.90
10123;DHT22;5101;49.038;8.710;2022-08-25T06:07:42;19.20;99.90
10123;DHT22;5101;49.038;8.710;2022-08-25T06:10:09;19.30;99.90
10123;DHT22;5101;49.038;8.710;2022-08-25T06:12:40;19.40;99.90
10123;DHT22;5101;49.038;8.710;2022-08-25T06:15:06;19.40;99.90
10123;DHT22;5101;49.038;8.710;2022-08-25T06:17:32;19.60;99.90
10123;DHT22;5101;49.038;8.710;2022-08-25T06:19:59;19.70;99.90
10123;DHT22;5101;49.038;8.710;2022-08-25T06:22:25;19.80;99.90
10123;DHT22;5101;49.038;8.710;2022-08-25T06:24:51;20.00;99.90
10123;DHT22;5101;49.038;8.710;2022-08-25T06:27:17;20.30;99.90
10123;DHT22;5101;49.038;8.710;2022-08-25T06:29:43;20.50;99.90
10123;DHT22;5101;49.038;8.710;2022-08-25T06:32:08;20.80;99.90
10123;DHT22;5101;49.038;8.710;2022-08-25T06:34:34;21.10;99.60
10123;DHT22;5101;49.038;8.710;2022-08-25T06:37:00;21.50;98.90
10123;DHT22;5101;49.038;8.710;2022-08-25T06:39:25;21.80;97.80
10123;DHT22;5101;49.038;8.710;2022-08-25T06:41:52;22.20;97.20
10123;DHT22;5101;49.038;8.710;2022-08-25T06:44:18;22.70;96.20
10123;DHT22;5101;49.038;8.710;2022-08-25T06:46:44;23.10;95.00
10123;DHT22;5101;49.038;8.710;2022-08-25T06:49:09;23.50;93.60
10123;DHT22;5101;49.038;8.710;2022-08-25T06:51:35;23.80;92.10
10123;DHT22;5101;49.038;8.710;2022-08-25T06:54:01;24.10;90.80
10123;DHT22;5101;49.038;8.710;2022-08-25T06:56:27;24.40;89.70
10123;DHT22;5101;49.038;8.710;2022-08-25T06:58:53;24.50;87.90
10123;DHT22;5101;49.038;8.710;2022-08-25T07:01:22;24.70;86.60
10123;DHT22;5101;49.038;8.710;2022-08-25T07:03:50;25.00;85.50
10123;DHT22;5101;49.038;8.710;2022-08-25T07:06:16;25.10;84.60
10123;DHT22;5101;49.038;8.710;2022-08-25T07:08:46;25.30;83.10
10123;DHT22;5101;49.038;8.710;2022-08-25T07:11:13;25.40;82.30
10123;DHT22;5101;49.038;8.710;2022-08-25T07:13:39;25.60;81.60
10123;DHT22;5101;49.038;8.710;2022-08-25T07:16:05;25.60;80.40
10123;DHT22;5101;49.038;8.710;2022-08-25T07:18:32;25.60;80.40
10123;DHT22;5101;49.038;8.710;2022-08-25T07:20:58;25.80;79.50
10123;DHT22;5101;49.038;8.710;2022-08-25T07:23:24;26.00;79.40
10123;DHT22;5101;49.038;8.710;2022-08-25T07:25:51;26.40;78.50
10123;DHT22;5101;49.038;8.710;2022-08-25T07:28:17;26.80;76.90
10123;DHT22;5101;49.038;8.710;2022-08-25T07:30:43;27.30;75.00
10123;DHT22;5101;49.038;8.710;2022-08-25T07:33:09;27.50;72.80
10123;DHT22;5101;49.038;8.710;2022-08-25T07:35:35;27.70;71.20
10123;DHT22;5101;49.038;8.710;2022-08-25T07:38:01;27.90;70.10
10123;DHT22;5101;49.038;8.710;2022-08-25T07:40:29;27.90;68.60
10123;DHT22;5101;49.038;8.710;2022-08-25T07:42:59;28.00;68.30
10123;DHT22;5101;49.038;8.710;2022-08-25T07:45:32;28.10;67.40
10123;DHT22;5101;49.038;8.710;2022-08-25T07:48:08;28.30;66.40
10123;DHT22;5101;49.038;8.710;2022-08-25T07:50:35;28.50;65.10
10123;DHT22;5101;49.038;8.710;2022-08-25T07:53:03;28.60;64.60
10123;DHT22;5101;49.038;8.710;2022-08-25T07:55:30;28.70;63.50
10123;DHT22;5101;49.038;8.710;2022-08-25T07:57:56;28.90;62.90
10123;DHT22;5101;49.038;8.710;2022-08-25T08:00:25;29.00;61.90
10123;DHT22;5101;49.038;8.710;2022-08-25T08:02:52;29.10;60.90
10123;DHT22;5101;49.038;8.710;2022-08-25T08:05:18;29.30;60.10
10123;DHT22;5101;49.038;8.710;2022-08-25T08:07:43;29.40;59.70
10123;DHT22;5101;49.038;8.710;2022-08-25T08:10:11;29.40;59.30
10123;DHT22;5101;49.038;8.710;2022-08-25T08:12:37;29.50;58.50
10123;DHT22;5101;49.038;8.710;2022-08-25T08:15:03;29.70;57.80
10123;DHT22;5101;49.038;8.710;2022-08-25T08:17:29;29.70;56.90
10123;DHT22;5101;49.038;8.710;2022-08-25T08:19:55;29.90;56.10
10123;DHT22;5101;49.038;8.710;2022-08-25T08:22:21;29.90;55.20
10123;DHT22;5101;49.038;8.710;2022-08-25T08:24:46;29.90;54.90
10123;DHT22;5101;49.038;8.710;2022-08-25T08:27:12;30.00;54.70
10123;DHT22;5101;49.038;8.710;2022-08-25T08:29:39;30.10;54.30
10123;DHT22;5101;49.038;8.710;2022-08-25T08:32:07;30.40;54.00
10123;DHT22;5101;49.038;8.710;2022-08-25T08:34:34;30.50;52.50
10123;DHT22;5101;49.038;8.710;2022-08-25T08:37:00;30.40;51.60
10123;DHT22;5101;49.038;8.710;2022-08-25T08:39:27;30.40;51.50
10123;DHT22;5101;49.038;8.710;2022-08-25T08:45:00;30.30;51.20
10123;DHT22;5101;49.038;8.710;2022-08-25T08:52:46;30.10;50.30
10123;DHT22;5101;49.038;8.710;2022-08-25T08:55:34;30.20;49.50
10123;DHT22;5101;49.038;8.710;2022-08-25T08:58:06;30.40;49.00
10123;DHT22;5101;49.038;8.710;2022-08-25T09:00:39;30.50;48.00
10123;DHT22;5101;49.038;8.710;2022-08-25T09:03:06;30.50;46.30
10123;DHT22;5101;49.038;8.710;2022-08-25T09:05:42;30.50;46.10
10123;DHT22;5101;49.038;8.710;2022-08-25T09:08:11;30.60;45.90
10123;DHT22;5101;49.038;8.710;2022-08-25T09:13:56;30.60;45.30
10123;DHT22;5101;49.038;8.710;2022-08-25T09:16:35;30.70;45.50
10123;DHT22;5101;49.038;8.710;2022-08-25T09:22:12;30.80;45.50
10123;DHT22;5101;49.038;8.710;2022-08-25T09:25:18;30.90;45.60
10123;DHT22;5101;49.038;8.710;2022-08-25T09:30:52;31.30;45.20
10123;DHT22;5101;49.038;8.710;2022-08-25T09:33:21;31.30;44.10
10123;DHT22;5101;49.038;8.710;2022-08-25T09:35:49;31.20;44.10
10123;DHT22;5101;49.038;8.710;2022-08-25T09:38:15;31.30;43.60
10123;DHT22;5101;49.038;8.710;2022-08-25T09:40:44;31.30;43.30
10123;DHT22;5101;49.038;8.710;2022-08-25T09:43:40;31.20;43.00
10123;DHT22;5101;49.038;8.710;2022-08-25T09:46:13;31.10;42.70
10123;DHT22;5101;49.038;8.710;2022-08-25T09:51:33;31.30;42.00
10123;DHT22;5101;49.038;8.710;2022-08-25T09:56:57;31.70;41.00
10123;DHT22;5101;49.038;8.710;2022-08-25T09:59:30;31.70;40.70
10123;DHT22;5101;49.038;8.710;2022-08-25T10:02:00;31.70;41.00
10123;DHT22;5101;49.038;8.710;2022-08-25T10:04:31;31.80;40.80
10123;DHT22;5101;49.038;8.710;2022-08-25T10:06:59;32.00;40.40
10123;DHT22;5101;49.038;8.710;2022-08-25T10:09:41;32.00;40.00
10123;DHT22;5101;49.038;8.710;2022-08-25T10:12:32;32.20;40.80
10123;DHT22;5101;49.038;8.710;2022-08-25T10:17:42;32.60;38.90
10123;DHT22;5101;49.038;8.710;2022-08-25T10:22:38;32.50;38.20
10123;DHT22;5101;49.038;8.710;2022-08-25T10:25:05;32.60;38.40
10123;DHT22;5101;49.038;8.710;2022-08-25T10:30:36;32.60;38.80
10123;DHT22;5101;49.038;8.710;2022-08-25T10:38:42;32.80;37.60
10123;DHT22;5101;49.038;8.710;2022-08-25T10:46:54;32.90;37.70
10123;DHT22;5101;49.038;8.710;2022-08-25T10:49:45;32.70;38.00
10123;DHT22;5101;49.038;8.710;2022-08-25T10:52:19;32.60;38.00
10123;DHT22;5101;49.038;8.710;2022-08-25T10:57:53;32.30;38.60
10123;DHT22;5101;49.038;8.710;2022-08-25T11:00:22;32.40;38.60
10123;DHT22;5101;49.038;8.710;2022-08-25T11:05:37;32.10;38.90
10123;DHT22;5101;49.038;8.710;2022-08-25T11:10:48;31.90;39.10
10123;DHT22;5101;49.038;8.710;2022-08-25T11:13:40;32.00;39.10
10123;DHT22;5101;49.038;8.710;2022-08-25T11:16:11;31.70;39.00
10123;DHT22;5101;49.038;8.710;2022-08-25T11:18:45;31.60;38.80
10123;DHT22;5101;49.038;8.710;2022-08-25T11:21:30;31.70;38.50
10123;DHT22;5101;49.038;8.710;2022-08-25T11:24:19;31.90;38.40
10123;DHT22;5101;49.038;8.710;2022-08-25T11:26:52;32.10;38.70
10123;DHT22;5101;49.038;8.710;2022-08-25T11:29:21;32.20;38.10
10123;DHT22;5101;49.038;8.710;2022-08-25T11:31:50;32.00;38.80
10123;DHT22;5101;49.038;8.710;2022-08-25T11:34:16;31.90;38.20
10123;DHT22;5101;49.038;8.710;2022-08-25T11:36:50;31.90;38.10
10123;DHT22;5101;49.038;8.710;2022-08-25T11:39:38;31.90;38.40
10123;DHT22;5101;49.038;8.710;2022-08-25T11:42:30;32.00;38.50
10123;DHT22;5101;49.038;8.710;2022-08-25T11:45:23;31.90;37.70
10123;DHT22;5101;49.038;8.710;2022-08-25T11:47:56;32.00;37.80
10123;DHT22;5101;49.038;8.710;2022-08-25T11:50:35;32.00;37.80
10123;DHT22;5101;49.038;8.710;2022-08-25T11:53:24;32.00;37.40
10123;DHT22;5101;49.038;8.710;2022-08-25T11:55:56;31.90;37.80
10123;DHT22;5101;49.038;8.710;2022-08-25T12:01:00;31.90;37.70
10123;DHT22;5101;49.038;8.710;2022-08-25T12:06:32;31.80;37.20
10123;DHT22;5101;49.038;8.710;2022-08-25T12:14:50;31.80;37.50
10123;DHT22;5101;49.038;8.710;2022-08-25T12:17:20;31.80;37.60
10123;DHT22;5101;49.038;8.710;2022-08-25T12:19:49;31.90;37.30
10123;DHT22;5101;49.038;8.710;2022-08-25T12:27:31;32.10;37.10
10123;DHT22;5101;49.038;8.710;2022-08-25T12:35:29;32.30;36.40
10123;DHT22;5101;49.038;8.710;2022-08-25T12:41:19;32.20;36.30
10123;DHT22;5101;49.038;8.710;2022-08-25T12:43:48;32.30;36.40
10123;DHT22;5101;49.038;8.710;2022-08-25T12:52:05;32.40;35.90
10123;DHT22;5101;49.038;8.710;2022-08-25T12:57:41;32.10;35.90
10123;DHT22;5101;49.038;8.710;2022-08-25T13:11:27;32.90;35.40
10123;DHT22;5101;49.038;8.710;2022-08-25T13:14:13;32.90;35.00
10123;DHT22;5101;49.038;8.710;2022-08-25T13:16:51;32.80;34.50
10123;DHT22;5101;49.038;8.710;2022-08-25T13:19:18;32.80;34.50
10123;DHT22;5101;49.038;8.710;2022-08-25T13:21:44;32.70;34.50
10123;DHT22;5101;49.038;8.710;2022-08-25T13:24:40;32.70;35.20
10123;DHT22;5101;49.038;8.710;2022-08-25T13:27:08;32.90;34.20
10123;DHT22;5101;49.038;8.710;2022-08-25T13:29:49;32.80;34.20
10123;DHT22;5101;49.038;8.710;2022-08-25T13:32:25;32.80;34.00
10123;DHT22;5101;49.038;8.710;2022-08-25T13:35:07;32.80;34.10
10123;DHT22;5101;49.038;8.710;2022-08-25T13:37:34;32.90;34.50
10123;DHT22;5101;49.038;8.710;2022-08-25T13:42:32;32.80;33.40
10123;DHT22;5101;49.038;8.710;2022-08-25T13:44:57;32.80;33.60
10123;DHT22;5101;49.038;8.710;2022-08-25T13:47:33;32.50;33.80
10123;DHT22;5101;49.038;8.710;2022-08-25T13:50:28;32.60;33.80
10123;DHT22;5101;49.038;8.710;2022-08-25T13:53:09;32.70;34.00
10123;DHT22;5101;49.038;8.710;2022-08-25T13:58:20;32.60;33.90
10123;DHT22;5101;49.038;8.710;2022-08-25T14:00:59;32.60;33.90
10123;DHT22;5101;49.038;8.710;2022-08-25T14:03:32;32.60;33.90
10123;DHT22;5101;49.038;8.710;2022-08-25T14:08:41;32.50;34.00
10123;DHT22;5101;49.038;8.710;2022-08-25T14:11:14;32.60;33.90
10123;DHT22;5101;49.038;8.710;2022-08-25T14:13:42;32.50;33.60
10123;DHT22;5101;49.038;8.710;2022-08-25T14:16:28;32.60;33.60
10123;DHT22;5101;49.038;8.710;2022-08-25T14:18:57;32.60;33.90
10123;DHT22;5101;49.038;8.710;2022-08-25T14:21:27;32.70;33.80
10123;DHT22;5101;49.038;8.710;2022-08-25T14:23:53;32.80;33.50
10123;DHT22;5101;49.038;8.710;2022-08-25T14:26:19;32.80;33.20
10123;DHT22;5101;49.038;8.710;2022-08-25T14:28:45;33.00;33.20
10123;DHT22;5101;49.038;8.710;2022-08-25T14:34:02;32.90;32.80
10123;DHT22;5101;49.038;8.710;2022-08-25T14:36:29;32.90;32.40
10123;DHT22;5101;49.038;8.710;2022-08-25T14:38:55;32.80;32.20
10123;DHT22;5101;49.038;8.710;2022-08-25T14:41:22;32.90;32.50
10123;DHT22;5101;49.038;8.710;2022-08-25T14:43:48;32.70;32.50
10123;DHT22;5101;49.038;8.710;2022-08-25T14:46:25;32.60;32.60
10123;DHT22;5101;49.038;8.710;2022-08-25T14:48:54;32.60;32.10
10123;DHT22;5101;49.038;8.710;2022-08-25T14:51:22;32.60;32.40
10123;DHT22;5101;49.038;8.710;2022-08-25T14:53:48;32.60;32.10
10123;DHT22;5101;49.038;8.710;2022-08-25T14:56:14;32.60;32.20
10123;DHT22;5101;49.038;8.710;2022-08-25T14:58:39;32.40;32.40
10123;DHT22;5101;49.038;8.710;2022-08-25T15:01:05;32.30;32.40
10123;DHT22;5101;49.038;8.710;2022-08-25T15:03:36;32.20;32.30
10123;DHT22;5101;49.038;8.710;2022-08-25T15:06:03;32.20;32.30
10123;DHT22;5101;49.038;8.710;2022-08-25T15:08:29;32.20;32.30
10123;DHT22;5101;49.038;8.710;2022-08-25T15:11:13;32.10;32.50
10123;DHT22;5101;49.038;8.710;2022-08-25T15:13:39;32.20;32.40
10123;DHT22;5101;49.038;8.710;2022-08-25T15:16:06;32.20;32.70
10123;DHT22;5101;49.038;8.710;2022-08-25T15:18:33;32.30;33.10
10123;DHT22;5101;49.038;8.710;2022-08-25T15:20:59;32.30;32.90
10123;DHT22;5101;49.038;8.710;2022-08-25T15:23:25;32.10;32.80
10123;DHT22;5101;49.038;8.710;2022-08-25T15:25:53;32.10;32.70
10123;DHT22;5101;49.038;8.710;2022-08-25T15:28:20;32.10;32.70
10123;DHT22;5101;49.038;8.710;2022-08-25T15:30:45;32.10;32.90
10123;DHT22;5101;49.038;8.710;2022-08-25T15:33:11;32.10;32.70
10123;DHT22;5101;49.038;8.710;2022-08-25T15:35:37;32.10;32.20
10123;DHT22;5101;49.038;8.710;2022-08-25T15:38:02;32.10;32.30
10123;DHT22;5101;49.038;8.710;2022-08-25T15:40:28;32.10;32.20
10123;DHT22;5101;49.038;8.710;2022-08-25T15:42:54;32.10;32.70
10123;DHT22;5101;49.038;8.710;2022-08-25T15:45:19;32.10;33.00
10123;DHT22;5101;49.038;8.710;2022-08-25T15:47:45;32.00;33.10
10123;DHT22;5101;49.038;8.710;2022-08-25T15:50:16;32.00;33.00
10123;DHT22;5101;49.038;8.710;2022-08-25T15:52:43;31.90;33.10
10123;DHT22;5101;49.038;8.710;2022-08-25T15:55:09;31.90;33.10
10123;DHT22;5101;49.038;8.710;2022-08-25T15:57:36;31.80;33.30
10123;DHT22;5101;49.038;8.710;2022-08-25T16:00:05;31.80;33.40
10123;DHT22;5101;49.038;8.710;2022-08-25T16:02:31;31.80;33.20
10123;DHT22;5101;49.038;8.710;2022-08-25T16:04:59;31.80;33.10
10123;DHT22;5101;49.038;8.710;2022-08-25T16:07:26;31.80;33.10
10123;DHT22;5101;49.038;8.710;2022-08-25T16:09:54;31.70;33.10
10123;DHT22;5101;49.038;8.710;2022-08-25T16:12:22;31.60;33.00
10123;DHT22;5101;49.038;8.710;2022-08-25T16:14:49;31.60;33.10
10123;DHT22;5101;49.038;8.710;2022-08-25T16:17:15;31.60;33.10
10123;DHT22;5101;49.038;8.710;2022-08-25T16:19:40;31.60;33.00
10123;DHT22;5101;49.038;8.710;2022-08-25T16:22:06;31.60;33.20
10123;DHT22;5101;49.038;8.710;2022-08-25T16:24:32;31.60;33.30
10123;DHT22;5101;49.038;8.710;2022-08-25T16:26:59;31.50;33.30
10123;DHT22;5101;49.038;8.710;2022-08-25T16:29:33;31.40;33.40
10123;DHT22;5101;49.038;8.710;2022-08-25T16:31:58;31.30;33.50
10123;DHT22;5101;49.038;8.710;2022-08-25T16:34:25;31.30;33.70
10123;DHT22;5101;49.038;8.710;2022-08-25T16:36:52;31.30;33.80
10123;DHT22;5101;49.038;8.710;2022-08-25T16:39:18;31.30;34.00
10123;DHT22;5101;49.038;8.710;2022-08-25T16:41:44;31.30;34.20
10123;DHT22;5101;49.038;8.710;2022-08-25T16:44:10;31.20;34.30
10123;DHT22;5101;49.038;8.710;2022-08-25T16:46:36;31.10;34.20
10123;DHT22;5101;49.038;8.710;2022-08-25T16:49:03;31.10;34.50
10123;DHT22;5101;49.038;8.710;2022-08-25T16:51:29;31.00;34.60
10123;DHT22;5101;49.038;8.710;2022-08-25T16:53:55;31.00;34.60
10123;DHT22;5101;49.038;8.710;2022-08-25T16:56:40;31.00;34.70
10123;DHT22;5101;49.038;8.710;2022-08-25T16:59:08;30.90;34.70
10123;DHT22;5101;49.038;8.710;2022-08-25T17:01:34;30.90;34.80
10123;DHT22;5101;49.038;8.710;2022-08-25T17:04:01;30.90;34.90
10123;DHT22;5101;49.038;8.710;2022-08-25T17:06:28;30.90;35.00
10123;DHT22;5101;49.038;8.710;2022-08-25T17:08:54;30.80;35.00
10123;DHT22;5101;49.038;8.710;2022-08-25T17:11:26;30.70;35.00
10123;DHT22;5101;49.038;8.710;2022-08-25T17:13:56;30.70;35.30
10123;DHT22;5101;49.038;8.710;2022-08-25T17:16:24;30.70;35.40
10123;DHT22;5101;49.038;8.710;2022-08-25T17:18:52;30.70;35.60
10123;DHT22;5101;49.038;8.710;2022-08-25T17:21:19;30.70;35.60
10123;DHT22;5101;49.038;8.710;2022-08-25T17:23:46;30.60;35.60
10123;DHT22;5101;49.038;8.710;2022-08-25T17:26:14;30.60;35.60
10123;DHT22;5101;49.038;8.710;2022-08-25T17:28:40;30.60;35.50
10123;DHT22;5101;49.038;8.710;2022-08-25T17:31:07;30.50;35.50
10123;DHT22;5101;49.038;8.710;2022-08-25T17:33:33;30.50;35.60
10123;DHT22;5101;49.038;8.710;2022-08-25T17:35:58;30.40;35.60
10123;DHT22;5101;49.038;8.710;2022-08-25T17:38:25;30.40;35.70
10123;DHT22;5101;49.038;8.710;2022-08-25T17:41:03;30.40;35.90
10123;DHT22;5101;49.038;8.710;2022-08-25T17:43:32;30.40;36.10